Time,TemperatureF,DewpointF,PressureIn,WindDirection,WindDirectionDegrees,WindSpeedMPH,WindSpeedGustMPH,Humidity,HourlyPrecipIn,Conditions,Clouds,dailyrainin,SoftwareType,DateUTC
2013-04-12 19:35:00,53.2,42.9,29.73,NW,318,3.0,6.0,68,0.00,,,0.61,Wunderground v.1.15,2013-04-12 23:35:00,
2013-04-12 19:36:00,53.1,42.8,29.73,NNW,327,3.0,6.0,68,0.00,,,0.61,Wunderground v.1.15,2013-04-12 23:36:00,
2013-04-12 19:38:00,52.9,43.0,29.73,WNW,291,4.0,6.0,69,0.00,,,0.61,Wunderground v.1.15,2013-04-12 23:38:00,
2013-04-12 19:40:00,52.6,42.7,29.74,WNW,284,4.0,7.0,69,0.00,,,0.61,Wunderground v.1.15,2013-04-12 23:40:00,
2013-04-12 19:45:00,51.7,42.2,29.75,NW,326,5.0,6.0,70,0.00,,,0.61,Wunderground v.1.15,2013-04-12 23:45:00,
2013-04-12 19:51:00,50.7,42.0,29.76,NNW,340,5.0,7.0,72,0.00,,,0.61,Wunderground v.1.15,2013-04-12 23:51:00,
2013-04-12 19:56:00,49.8,41.1,29.76,NNW,329,4.0,6.0,72,0.00,,,0.61,Wunderground v.1.15,2013-04-12 23:56:00,
2013-04-12 20:01:00,48.9,41.3,29.77,NW,311,4.0,4.0,75,0.00,,,0.61,Wunderground v.1.15,2013-04-13 00:01:00,
2013-04-12 20:07:00,48.2,40.6,29.77,NNW,335,2.0,4.0,75,0.00,,,0.61,Wunderground v.1.15,2013-04-13 00:07:00,
2013-04-12 20:13:00,47.4,39.9,29.78,NNW,348,3.0,4.0,75,0.00,,,0.61,Wunderground v.1.15,2013-04-13 00:13:00,
2013-04-12 20:19:00,46.4,38.9,29.78,NNW,340,4.0,7.0,75,0.00,,,0.61,Wunderground v.1.15,2013-04-13 00:19:00,
2013-04-12 20:24:00,45.9,38.4,29.79,West,259,3.0,4.0,75,0.00,,,0.61,Wunderground v.1.15,2013-04-13 00:24:00,
2013-04-12 20:29:00,45.5,38.0,29.79,NNW,331,3.0,6.0,75,0.00,,,0.61,Wunderground v.1.15,2013-04-13 00:29:00,
2013-04-12 20:35:00,45.1,37.6,29.80,North,352,4.0,7.0,75,0.00,,,0.61,Wunderground v.1.15,2013-04-13 00:35:00,
2013-04-12 20:41:00,44.8,36.7,29.80,NNW,340,3.0,5.0,73,0.00,,,0.61,Wunderground v.1.15,2013-04-13 00:41:00,
2013-04-12 20:47:00,44.3,35.5,29.81,North,352,3.0,9.0,71,0.00,,,0.61,Wunderground v.1.15,2013-04-13 00:47:00,
2013-04-12 20:52:00,44.2,35.7,29.81,NNW,346,3.0,3.0,72,0.00,,,0.61,Wunderground v.1.15,2013-04-13 00:52:00,
2013-04-12 20:57:00,44.0,35.6,29.81,NNW,334,2.0,5.0,72,0.00,,,0.61,Wunderground v.1.15,2013-04-13 00:57:00,
2013-04-12 21:03:00,43.8,35.0,29.82,NNW,335,2.0,3.0,71,0.00,,,0.61,Wunderground v.1.15,2013-04-13 01:03:00,
2013-04-12 21:08:00,43.7,34.9,29.82,NNW,340,1.0,5.0,71,0.00,,,0.61,Wunderground v.1.15,2013-04-13 01:08:00,
2013-04-12 21:13:00,43.5,34.7,29.82,NW,318,2.0,4.0,71,0.00,,,0.61,Wunderground v.1.15,2013-04-13 01:13:00,
2013-04-12 21:19:00,43.4,34.3,29.82,North,354,2.0,4.0,70,0.00,,,0.61,Wunderground v.1.15,2013-04-13 01:19:00,
2013-04-12 21:24:00,43.4,34.3,29.82,NNW,335,2.0,3.0,70,0.00,,,0.61,Wunderground v.1.15,2013-04-13 01:24:00,
2013-04-12 21:29:00,43.4,34.3,29.82,NNW,335,2.0,3.0,70,0.00,,,0.61,Wunderground v.1.15,2013-04-13 01:29:00,
2013-04-12 21:35:00,43.3,34.5,29.82,NNW,332,2.0,4.0,71,0.00,,,0.61,Wunderground v.1.15,2013-04-13 01:35:00,
2013-04-12 21:41:00,43.3,34.5,29.82,North,354,1.0,2.0,71,0.00,,,0.61,Wunderground v.1.15,2013-04-13 01:41:00,
2013-04-12 21:46:00,43.2,34.8,29.82,NNW,339,1.0,4.0,72,0.00,,,0.61,Wunderground v.1.15,2013-04-13 01:46:00,
2013-04-12 21:52:00,43.1,34.0,29.83,NNW,338,1.0,2.0,70,0.00,,,0.61,Wunderground v.1.15,2013-04-13 01:52:00,
2013-04-12 21:57:00,42.9,34.1,29.83,NNW,334,1.0,3.0,71,0.00,,,0.61,Wunderground v.1.15,2013-04-13 01:57:00,
2013-04-12 22:03:00,42.7,33.9,29.83,North,349,1.0,2.0,71,0.00,,,0.61,Wunderground v.1.15,2013-04-13 02:03:00,
2013-04-12 22:08:00,42.7,34.3,29.83,NNW,338,1.0,3.0,72,0.00,,,0.61,Wunderground v.1.15,2013-04-13 02:08:00,
2013-04-12 22:13:00,42.8,34.4,29.83,NW,322,1.0,2.0,72,0.00,,,0.61,Wunderground v.1.15,2013-04-13 02:13:00,
2013-04-12 22:19:00,42.8,34.7,29.83,NNW,335,1.0,2.0,73,0.00,,,0.61,Wunderground v.1.15,2013-04-13 02:19:00,
2013-04-12 22:24:00,42.8,34.0,29.83,NNW,342,1.0,3.0,71,0.00,,,0.61,Wunderground v.1.15,2013-04-13 02:24:00,
2013-04-12 22:29:00,42.9,34.5,29.83,NNW,337,1.0,3.0,72,0.00,,,0.61,Wunderground v.1.15,2013-04-13 02:29:00,
2013-04-12 22:34:00,42.8,34.0,29.83,NNW,335,0.0,1.0,71,0.00,,,0.61,Wunderground v.1.15,2013-04-13 02:34:00,
2013-04-12 22:39:00,42.8,34.4,29.83,NNW,335,1.0,1.0,72,0.00,,,0.61,Wunderground v.1.15,2013-04-13 02:39:00,
2013-04-12 22:45:00,42.8,34.0,29.84,NNW,330,1.0,1.0,71,0.00,,,0.61,Wunderground v.1.15,2013-04-13 02:45:00,
2013-04-12 22:51:00,42.8,34.7,29.84,NNW,335,1.0,1.0,73,0.00,,,0.61,Wunderground v.1.15,2013-04-13 02:51:00,
2013-04-12 22:56:00,42.8,34.4,29.83,NNW,339,0.0,1.0,72,0.00,,,0.61,Wunderground v.1.15,2013-04-13 02:56:00,
2013-04-12 23:02:00,42.7,34.3,29.83,NNW,339,0.0,0.0,72,0.00,,,0.61,Wunderground v.1.15,2013-04-13 03:02:00,
2013-04-12 23:07:00,42.7,34.6,29.83,NNW,339,0.0,1.0,73,0.00,,,0.61,Wunderground v.1.15,2013-04-13 03:07:00,
2013-04-12 23:12:00,42.6,34.5,29.83,NW,323,0.0,2.0,73,0.00,,,0.61,Wunderground v.1.15,2013-04-13 03:12:00,
2013-04-12 23:18:00,42.6,34.2,29.83,NNW,330,1.0,3.0,72,0.00,,,0.61,Wunderground v.1.15,2013-04-13 03:18:00,
2013-04-12 23:24:00,42.5,34.5,29.83,North,357,1.0,2.0,73,0.00,,,0.61,Wunderground v.1.15,2013-04-13 03:24:00,
2013-04-12 23:29:00,42.5,34.5,29.83,NNW,336,1.0,2.0,73,0.00,,,0.61,Wunderground v.1.15,2013-04-13 03:29:00,
2013-04-12 23:34:00,42.6,34.9,29.83,NNW,341,0.0,1.0,74,0.00,,,0.61,Wunderground v.1.15,2013-04-13 03:34:00,
2013-04-12 23:39:00,42.5,34.8,29.83,NNW,338,0.0,1.0,74,0.00,,,0.61,Wunderground v.1.15,2013-04-13 03:39:00,
2013-04-12 23:45:00,42.5,34.5,29.83,NNW,340,0.0,1.0,73,0.00,,,0.61,Wunderground v.1.15,2013-04-13 03:45:00,
2013-04-12 23:51:00,42.4,34.7,29.83,NNW,338,0.0,2.0,74,0.00,,,0.61,Wunderground v.1.15,2013-04-13 03:51:00,
2013-04-12 23:56:00,42.4,35.0,29.83,NNW,338,1.0,2.0,75,0.00,,,0.61,Wunderground v.1.15,2013-04-13 03:56:00,